createdAt,value
2019-03-06T00:01:28.862Z,11.07
2019-03-06T00:03:57.975Z,9.73
2019-03-06T00:06:27.097Z,10.10
2019-03-06T00:08:56.127Z,10.37
2019-03-06T00:11:25.151Z,8.63
2019-03-06T00:13:54.192Z,8.87
2019-03-06T00:16:23.261Z,10.20
2019-03-06T00:18:52.320Z,10.83
2019-03-06T00:21:21.358Z,9.20
2019-03-06T00:23:50.466Z,12.03
2019-03-06T00:26:19.497Z,9.43
2019-03-06T00:28:50.607Z,10.10
2019-03-06T00:31:19.634Z,11.90
2019-03-06T00:33:48.739Z,11.53
2019-03-06T00:36:22.426Z,11.23
2019-03-06T00:38:51.463Z,13.07
2019-03-06T00:41:45.788Z,10.07
2019-03-06T00:44:16.898Z,11.20
2019-03-06T00:46:45.968Z,10.37
2019-03-06T00:49:15.018Z,11.87
2019-03-06T00:51:44.101Z,10.37
2019-03-06T00:54:13.218Z,13.50
2019-03-06T00:56:42.278Z,12.20
2019-03-06T00:59:11.357Z,11.30
2019-03-06T01:01:40.403Z,12.87
2019-03-06T01:04:09.457Z,12.67
2019-03-06T01:06:38.538Z,12.50
2019-03-06T01:09:08.044Z,12.00
2019-03-06T01:11:37.195Z,10.57
2019-03-06T01:14:06.299Z,14.27
2019-03-06T01:16:35.375Z,11.10
2019-03-06T01:19:04.419Z,14.73
2019-03-06T01:21:33.468Z,10.00
2019-03-06T01:24:02.518Z,11.10
2019-03-06T01:26:31.588Z,10.20
2019-03-06T01:29:00.627Z,13.60
2019-03-06T01:31:29.737Z,11.83
2019-03-06T01:34:23.501Z,10.20
2019-03-06T01:37:29.985Z,10.83
2019-03-06T01:40:18.064Z,10.23
2019-03-06T01:42:54.662Z,11.17
2019-03-06T01:45:23.691Z,12.10
2019-03-06T01:47:54.741Z,11.50
2019-03-06T01:50:23.763Z,11.47
2019-03-06T01:52:55.513Z,15.90
2019-03-06T01:55:24.488Z,8.70
2019-03-06T01:57:53.592Z,10.67
2019-03-06T02:00:22.811Z,9.00
2019-03-06T02:02:51.877Z,9.00
2019-03-06T02:05:20.865Z,9.57
2019-03-06T02:07:49.934Z,29.97
2019-03-06T02:10:18.991Z,25.00
2019-03-06T02:12:51.751Z,10.43
2019-03-06T02:15:21.223Z,11.67
2019-03-06T02:17:50.334Z,9.83
2019-03-06T02:20:19.436Z,8.80
2019-03-06T02:22:51.435Z,8.23
2019-03-06T02:25:20.465Z,9.37
2019-03-06T02:27:49.573Z,10.63
2019-03-06T02:30:20.508Z,13.33
2019-03-06T02:32:50.895Z,11.37
2019-03-06T02:35:20.007Z,8.73
2019-03-06T02:37:49.113Z,9.83
2019-03-06T02:40:20.376Z,11.13
2019-03-06T02:42:49.452Z,8.10
2019-03-06T02:45:18.500Z,8.43
2019-03-06T02:47:47.708Z,11.27
2019-03-06T02:50:16.762Z,8.53
2019-03-06T02:52:45.836Z,9.80
2019-03-06T02:55:15.118Z,8.10
2019-03-06T02:57:50.768Z,8.53
2019-03-06T03:00:47.545Z,6.87
2019-03-06T03:03:36.657Z,6.40
2019-03-06T03:06:10.036Z,7.73
2019-03-06T03:08:39.091Z,8.07
2019-03-06T03:11:08.155Z,9.30
2019-03-06T03:13:38.151Z,6.67
2019-03-06T03:16:09.513Z,10.13
2019-03-06T03:18:39.153Z,7.00
2019-03-06T03:21:08.210Z,8.13
2019-03-06T03:23:37.274Z,6.70
2019-03-06T03:26:06.323Z,6.93
2019-03-06T03:28:35.377Z,6.50
2019-03-06T03:31:04.458Z,6.77
2019-03-06T03:33:38.458Z,6.53
2019-03-06T03:36:08.570Z,5.77
2019-03-06T03:38:37.682Z,7.67
2019-03-06T03:41:06.718Z,6.80
2019-03-06T03:43:36.035Z,9.67
2019-03-06T03:46:05.318Z,6.30
2019-03-06T03:48:34.513Z,5.80
2019-03-06T03:51:03.677Z,6.70
2019-03-06T03:53:32.777Z,7.93
2019-03-06T03:56:01.860Z,7.90
2019-03-06T03:58:30.921Z,6.17
2019-03-06T04:00:59.961Z,7.07
2019-03-06T04:03:29.129Z,7.43
2019-03-06T04:05:58.172Z,7.27
2019-03-06T04:08:27.281Z,6.63
2019-03-06T04:10:56.380Z,7.10
2019-03-06T04:13:26.529Z,6.77
2019-03-06T04:15:55.597Z,7.20
2019-03-06T04:18:24.745Z,7.30
2019-03-06T04:20:53.848Z,7.03
2019-03-06T04:23:22.863Z,8.57
2019-03-06T04:25:51.960Z,10.97
2019-03-06T04:28:21.032Z,6.77
2019-03-06T04:30:53.167Z,7.17
2019-03-06T04:33:22.327Z,6.90
2019-03-06T04:35:51.363Z,6.53
2019-03-06T04:38:20.397Z,6.60
2019-03-06T04:40:51.774Z,6.43
2019-03-06T04:43:20.849Z,7.37
2019-03-06T04:45:49.974Z,7.23
2019-03-06T04:48:18.975Z,15.23
2019-03-06T04:50:48.328Z,25.13
2019-03-06T04:53:17.345Z,12.33
2019-03-06T04:55:50.436Z,6.53
2019-03-06T04:58:19.770Z,6.57
2019-03-06T05:00:48.846Z,8.17
2019-03-06T05:03:17.905Z,26.10
2019-03-06T05:05:47.109Z,14.20
2019-03-06T05:08:17.209Z,6.30
2019-03-06T05:10:48.887Z,9.30
2019-03-06T05:13:17.850Z,12.80
2019-03-06T05:15:46.918Z,6.47
2019-03-06T05:18:27.849Z,6.07
2019-03-06T05:20:57.035Z,5.87
2019-03-06T05:23:26.076Z,5.93
2019-03-06T05:25:55.206Z,7.13
2019-03-06T05:28:24.294Z,51.60
2019-03-06T05:30:53.329Z,6.93
2019-03-06T05:33:25.520Z,7.13
2019-03-06T05:36:40.458Z,9.07
2019-03-06T05:39:10.839Z,7.70
2019-03-06T05:41:40.157Z,10.07
2019-03-06T05:44:09.219Z,7.47
2019-03-06T05:46:38.358Z,11.80
2019-03-06T05:49:07.527Z,13.93
2019-03-06T05:51:36.653Z,7.03
2019-03-06T05:54:05.713Z,7.67
2019-03-06T05:56:34.773Z,7.33
2019-03-06T05:59:04.965Z,12.03
2019-03-06T06:01:34.267Z,22.03
2019-03-06T06:04:03.291Z,19.07
2019-03-06T06:06:32.341Z,37.03
2019-03-06T06:09:01.361Z,41.77
2019-03-06T06:11:30.512Z,19.27
2019-03-06T06:13:59.631Z,21.93
2019-03-06T06:16:28.689Z,21.73
2019-03-06T06:18:57.694Z,31.73
2019-03-06T06:21:54.575Z,49.60
2019-03-06T06:24:27.619Z,38.07
2019-03-06T06:26:59.036Z,32.10
2019-03-06T06:29:30.278Z,30.00
2019-03-06T06:31:59.709Z,15.87
2019-03-06T06:34:30.026Z,22.60
2019-03-06T06:36:59.176Z,14.50
2019-03-06T06:39:30.265Z,16.30
2019-03-06T06:41:59.310Z,14.37
2019-03-06T06:44:29.746Z,32.37
2019-03-06T06:46:58.791Z,16.60
2019-03-06T06:49:27.895Z,37.37
2019-03-06T06:52:28.855Z,10.43
2019-03-06T06:55:27.157Z,28.13
2019-03-06T06:58:18.674Z,35.53
2019-03-06T07:01:36.646Z,9.63
2019-03-06T07:04:47.684Z,19.33
2019-03-06T07:07:41.596Z,13.43
2019-03-06T07:10:28.154Z,17.23
2019-03-06T07:13:16.212Z,11.27
2019-03-06T07:16:19.135Z,6.70
2019-03-06T07:19:19.762Z,6.90
2019-03-06T07:22:07.911Z,7.07
2019-03-06T07:24:59.056Z,6.63
2019-03-06T07:27:47.309Z,6.13
2019-03-06T07:30:44.333Z,7.57
2019-03-06T07:33:20.029Z,15.40
2019-03-06T07:36:27.432Z,38.87
2019-03-06T07:39:00.150Z,12.63
2019-03-06T07:41:51.779Z,6.90
2019-03-06T07:44:36.310Z,6.67
2019-03-06T07:47:23.179Z,6.93
2019-03-06T07:50:14.375Z,12.60
2019-03-06T07:53:02.474Z,11.27
2019-03-06T07:55:50.810Z,9.90
2019-03-06T07:59:06.005Z,9.53
2019-03-06T08:01:41.818Z,8.10
2019-03-06T08:04:13.061Z,7.80
2019-03-06T08:06:45.026Z,6.57
2019-03-06T08:09:19.395Z,7.00
2019-03-06T08:12:11.518Z,6.60
2019-03-06T08:15:02.741Z,8.53
2019-03-06T08:17:50.713Z,8.00
2019-03-06T08:20:37.376Z,7.47
2019-03-06T08:23:31.175Z,8.13
2019-03-06T08:26:00.184Z,7.40
2019-03-06T08:28:29.219Z,12.87
2019-03-06T08:31:26.620Z,8.83
2019-03-06T08:33:55.656Z,7.87
2019-03-06T08:36:24.732Z,15.27
2019-03-06T08:38:54.972Z,15.30
2019-03-06T08:41:24.035Z,10.80
2019-03-06T08:43:53.218Z,12.40
2019-03-06T08:46:42.004Z,10.10
2019-03-06T08:49:30.155Z,11.83
2019-03-06T08:52:24.357Z,8.03
2019-03-06T08:55:17.887Z,6.07
2019-03-06T08:58:11.510Z,5.43
2019-03-06T09:01:09.939Z,5.53
2019-03-06T09:04:16.310Z,5.33
2019-03-06T09:06:51.807Z,5.53
2019-03-06T09:09:42.814Z,5.93
2019-03-06T09:12:29.842Z,6.63
2019-03-06T09:15:16.770Z,5.90
2019-03-06T09:18:10.801Z,5.63
2019-03-06T09:21:08.073Z,5.83
2019-03-06T09:23:54.643Z,6.30
2019-03-06T09:26:33.488Z,5.70
2019-03-06T09:29:20.043Z,3.37
2019-03-06T09:32:20.108Z,3.10
2019-03-06T09:35:01.701Z,3.17
2019-03-06T09:37:54.800Z,3.50
2019-03-06T09:40:51.185Z,3.93
2019-03-06T09:43:41.078Z,2.50
2019-03-06T09:46:39.607Z,2.50
2019-03-06T09:49:20.580Z,2.43
2019-03-06T09:52:02.859Z,2.13
2019-03-06T09:54:47.366Z,3.30
2019-03-06T09:57:24.853Z,2.43
2019-03-06T10:00:03.475Z,4.63
2019-03-06T10:02:43.734Z,3.67
2019-03-06T10:05:22.995Z,5.40
2019-03-06T10:08:04.317Z,11.33
2019-03-06T10:10:58.250Z,3.17
2019-03-06T10:13:52.263Z,2.20
2019-03-06T10:16:29.531Z,2.93
2019-03-06T10:19:13.475Z,2.97
2019-03-06T10:21:42.640Z,3.37
2019-03-06T10:24:11.717Z,1.83
2019-03-06T10:26:42.397Z,4.10
2019-03-06T10:29:11.449Z,4.27
2019-03-06T10:31:40.565Z,2.17
2019-03-06T10:34:09.636Z,3.60
2019-03-06T10:36:38.768Z,1.90
2019-03-06T10:39:10.336Z,3.27
2019-03-06T10:41:39.377Z,2.47
2019-03-06T10:44:11.208Z,1.27
2019-03-06T10:46:40.318Z,5.07
2019-03-06T10:49:09.406Z,2.37
2019-03-06T10:51:38.505Z,3.87
2019-03-06T10:54:07.577Z,2.53
2019-03-06T10:56:36.607Z,2.23
2019-03-06T10:59:06.081Z,3.77
2019-03-06T11:01:35.193Z,3.90
2019-03-06T11:04:22.148Z,3.23
2019-03-06T11:06:51.323Z,5.30
2019-03-06T11:09:20.443Z,6.27
2019-03-06T11:11:49.515Z,5.83
2019-03-06T11:14:21.374Z,2.40
2019-03-06T11:16:50.469Z,6.97
2019-03-06T11:19:19.832Z,6.10
2019-03-06T11:21:48.924Z,2.40
2019-03-06T11:24:18.016Z,10.63
2019-03-06T11:26:47.092Z,5.33
2019-03-06T11:29:16.166Z,3.07
2019-03-06T11:31:45.277Z,3.47
2019-03-06T11:34:16.438Z,2.50
2019-03-06T11:36:45.494Z,4.50
2019-03-06T11:39:14.646Z,1.90
2019-03-06T11:41:43.694Z,4.73
2019-03-06T11:44:14.651Z,4.30
2019-03-06T11:46:43.703Z,3.50
2019-03-06T11:49:12.794Z,3.43
2019-03-06T11:51:41.923Z,8.17
2019-03-06T11:54:11.756Z,2.70
2019-03-06T11:56:41.343Z,6.27
2019-03-06T11:59:10.510Z,3.00
2019-03-06T12:01:47.978Z,6.23
2019-03-06T12:04:11.755Z,3.70
2019-03-06T12:06:40.914Z,2.70
2019-03-06T12:09:30.532Z,2.03
2019-03-06T12:11:59.689Z,2.97
2019-03-06T12:14:31.186Z,7.20
2019-03-06T12:17:00.188Z,3.60
2019-03-06T12:19:29.254Z,6.23
2019-03-06T12:21:58.280Z,4.03
2019-03-06T12:24:30.956Z,2.57
2019-03-06T12:27:00.209Z,2.00
2019-03-06T12:29:29.353Z,3.33
2019-03-06T12:31:58.396Z,3.53
2019-03-06T12:34:30.036Z,4.13
2019-03-06T12:36:59.121Z,2.87
2019-03-06T12:39:28.736Z,4.43
2019-03-06T12:42:00.008Z,2.30
2019-03-06T12:44:29.313Z,3.03
2019-03-06T12:47:00.836Z,2.47
2019-03-06T12:49:30.568Z,2.40
2019-03-06T12:51:59.731Z,2.57
2019-03-06T12:54:28.983Z,6.37
2019-03-06T12:56:58.137Z,6.20
2019-03-06T12:59:27.404Z,2.37
2019-03-06T13:01:56.539Z,2.43
2019-03-06T13:04:25.864Z,1.93
2019-03-06T13:06:55.516Z,2.90
2019-03-06T13:09:24.638Z,2.43
2019-03-06T13:11:53.889Z,2.70
2019-03-06T13:14:23.357Z,2.33
2019-03-06T13:16:52.732Z,4.00
2019-03-06T13:19:21.926Z,1.80
2019-03-06T13:21:50.947Z,3.90
2019-03-06T13:24:19.980Z,7.80
2019-03-06T13:26:49.060Z,3.80
2019-03-06T13:29:18.382Z,7.37
2019-03-06T13:31:47.486Z,6.77
2019-03-06T13:34:50.806Z,2.37
2019-03-06T13:37:18.367Z,2.40
2019-03-06T13:39:47.487Z,1.63
2019-03-06T13:42:16.507Z,3.60
2019-03-06T13:44:45.559Z,2.17
2019-03-06T13:47:14.662Z,2.57
2019-03-06T13:49:43.935Z,1.97
2019-03-06T13:52:13.284Z,1.70
2019-03-06T13:54:42.353Z,2.07
2019-03-06T13:57:11.995Z,1.83
2019-03-06T13:59:41.078Z,3.37
2019-03-06T14:02:10.258Z,2.43
2019-03-06T14:04:42.521Z,3.03
2019-03-06T14:07:15.030Z,5.43
2019-03-06T14:09:44.916Z,3.33
2019-03-06T14:12:13.984Z,2.53
2019-03-06T14:14:42.995Z,1.90
2019-03-06T14:17:12.097Z,2.83
2019-03-06T14:19:42.910Z,2.33
2019-03-06T14:22:11.987Z,2.30
2019-03-06T14:24:41.017Z,1.30
2019-03-06T14:27:10.142Z,2.30
2019-03-06T14:29:40.719Z,4.30
2019-03-06T14:32:14.601Z,2.37
2019-03-06T14:34:40.544Z,2.70
2019-03-06T14:37:09.711Z,1.93
2019-03-06T14:39:38.720Z,2.23
2019-03-06T14:42:08.029Z,2.13
2019-03-06T14:44:37.098Z,1.93
2019-03-06T14:47:08.192Z,3.87
2019-03-06T14:49:37.562Z,2.73
2019-03-06T14:52:07.901Z,2.37
2019-03-06T14:54:36.928Z,4.93
2019-03-06T14:57:06.088Z,1.93
2019-03-06T14:59:37.732Z,2.80
2019-03-06T15:02:06.804Z,2.73
2019-03-06T15:04:35.852Z,5.10
2019-03-06T15:07:06.258Z,4.20
2019-03-06T15:09:35.418Z,4.53
2019-03-06T15:12:04.442Z,3.33
2019-03-06T15:14:36.897Z,4.17
2019-03-06T15:17:08.187Z,4.77
2019-03-06T15:19:39.176Z,5.73
2019-03-06T15:22:10.311Z,5.40
2019-03-06T15:24:41.608Z,4.53
2019-03-06T15:27:11.687Z,2.63
2019-03-06T15:29:41.039Z,5.27
2019-03-06T15:32:10.096Z,3.67
2019-03-06T15:34:39.133Z,5.07
2019-03-06T15:37:08.231Z,5.50
2019-03-06T15:39:45.638Z,4.53
2019-03-06T15:42:12.902Z,3.17
2019-03-06T15:44:42.019Z,4.23
2019-03-06T15:47:12.367Z,2.83
2019-03-06T15:49:41.441Z,3.83
2019-03-06T15:52:10.939Z,3.27
2019-03-06T15:54:39.994Z,4.40
2019-03-06T15:57:11.508Z,3.03
2019-03-06T15:59:40.665Z,2.07
2019-03-06T16:02:09.722Z,4.87
2019-03-06T16:04:38.848Z,3.60
2019-03-06T16:07:07.862Z,4.07
2019-03-06T16:09:37.482Z,3.07
2019-03-06T16:12:06.523Z,20.30
2019-03-06T16:14:35.640Z,5.33
2019-03-06T16:17:04.675Z,5.23
2019-03-06T16:19:34.188Z,17.73
2019-03-06T16:22:03.366Z,5.77
2019-03-06T16:24:34.005Z,7.77
2019-03-06T16:27:03.010Z,4.93
2019-03-06T16:29:32.140Z,4.10
2019-03-06T16:32:01.203Z,5.37
2019-03-06T16:34:32.256Z,4.93
2019-03-06T16:37:01.294Z,3.23
2019-03-06T16:39:30.368Z,4.13
2019-03-06T16:41:59.378Z,3.73
2019-03-06T16:44:28.489Z,4.73
2019-03-06T16:47:06.171Z,3.93
2019-03-06T16:49:28.337Z,5.83
2019-03-06T16:51:57.630Z,5.37
2019-03-06T16:54:26.657Z,5.17
2019-03-06T16:56:55.775Z,4.53
2019-03-06T16:59:24.865Z,4.23
2019-03-06T17:01:53.899Z,5.00
2019-03-06T17:04:22.973Z,6.10
2019-03-06T17:06:52.010Z,4.70
2019-03-06T17:09:21.069Z,5.03
2019-03-06T17:11:50.093Z,6.20
2019-03-06T17:14:19.126Z,5.57
2019-03-06T17:16:48.222Z,4.20
2019-03-06T17:19:17.250Z,5.20
2019-03-06T17:21:46.395Z,3.73
2019-03-06T17:24:15.391Z,4.57
2019-03-06T17:26:45.787Z,3.37
2019-03-06T17:29:15.152Z,4.30
2019-03-06T17:31:44.228Z,6.20
2019-03-06T17:34:13.630Z,10.60
2019-03-06T17:36:42.652Z,6.73
2019-03-06T17:39:11.854Z,7.17
2019-03-06T17:41:40.944Z,7.63
2019-03-06T17:44:11.168Z,5.30
2019-03-06T17:46:40.365Z,6.30
2019-03-06T17:49:09.546Z,8.00
2019-03-06T17:51:38.692Z,6.60
2019-03-06T17:54:07.787Z,9.40
2019-03-06T17:56:36.863Z,6.23
2019-03-06T17:59:06.032Z,8.50
2019-03-06T18:01:35.151Z,7.80
2019-03-06T18:04:25.531Z,10.33
2019-03-06T18:06:56.036Z,10.10
2019-03-06T18:09:25.064Z,9.50
2019-03-06T18:11:54.169Z,7.90
2019-03-06T18:14:23.239Z,5.40
2019-03-06T18:16:52.337Z,7.53
2019-03-06T18:19:23.671Z,7.03
2019-03-06T18:21:52.711Z,6.83
2019-03-06T18:24:21.824Z,7.63
2019-03-06T18:26:50.930Z,7.60
2019-03-06T18:29:19.956Z,8.43
2019-03-06T18:31:49.339Z,6.17
2019-03-06T18:34:18.455Z,11.33
2019-03-06T18:36:47.524Z,6.53
2019-03-06T18:39:22.920Z,6.03
2019-03-06T18:41:53.281Z,8.90
2019-03-06T18:44:22.319Z,14.47
2019-03-06T18:46:51.465Z,20.77
2019-03-06T18:49:20.716Z,18.47
2019-03-06T18:51:50.009Z,11.53
2019-03-06T18:54:21.345Z,16.53
2019-03-06T18:56:50.699Z,17.27
2019-03-06T18:59:19.806Z,11.10
2019-03-06T19:01:48.899Z,8.73
2019-03-06T19:04:18.022Z,8.30
2019-03-06T19:06:47.081Z,13.60
2019-03-06T19:09:16.145Z,12.40
2019-03-06T19:11:45.363Z,7.90
2019-03-06T19:14:14.429Z,9.77
2019-03-06T19:16:43.482Z,12.10
2019-03-06T19:19:12.560Z,8.87
2019-03-06T19:21:41.616Z,12.40
2019-03-06T19:24:10.709Z,7.97
2019-03-06T19:26:40.016Z,10.20
2019-03-06T19:29:09.091Z,19.33
2019-03-06T19:31:38.144Z,14.27
2019-03-06T19:34:07.217Z,10.00
2019-03-06T19:36:36.284Z,10.77
2019-03-06T19:39:06.639Z,9.43
2019-03-06T19:41:35.891Z,14.00
2019-03-06T19:44:05.024Z,10.07
2019-03-06T19:46:34.370Z,11.57
2019-03-06T19:49:03.590Z,10.97
2019-03-06T19:51:32.661Z,9.17
2019-03-06T19:54:01.800Z,10.73
2019-03-06T19:56:31.125Z,7.07
2019-03-06T19:59:00.266Z,13.13
2019-03-06T20:01:29.382Z,9.80
2019-03-06T20:03:58.470Z,8.00
2019-03-06T20:06:27.560Z,13.97
2019-03-06T20:08:56.630Z,9.10
2019-03-06T20:11:25.726Z,12.13
2019-03-06T20:13:57.911Z,10.00
2019-03-06T20:16:26.970Z,11.73
2019-03-06T20:18:56.116Z,9.77
2019-03-06T20:21:25.318Z,16.20
2019-03-06T20:23:54.366Z,11.80
2019-03-06T20:26:23.357Z,9.33
2019-03-06T20:28:52.423Z,8.27
2019-03-06T20:31:21.439Z,11.23
2019-03-06T20:33:50.538Z,6.93
2019-03-06T20:36:19.561Z,11.27
2019-03-06T20:38:48.604Z,13.43
2019-03-06T20:41:17.684Z,12.93
2019-03-06T20:43:46.838Z,13.23
2019-03-06T20:46:15.967Z,11.93
2019-03-06T20:48:45.054Z,15.13
2019-03-06T20:51:14.099Z,9.27
2019-03-06T20:53:43.178Z,16.50
2019-03-06T20:56:12.365Z,12.87
2019-03-06T20:58:41.544Z,29.93
2019-03-06T21:01:10.620Z,13.80
2019-03-06T21:03:39.651Z,11.60
2019-03-06T21:06:08.996Z,12.80
2019-03-06T21:08:38.058Z,12.07
2019-03-06T21:11:07.116Z,10.40
2019-03-06T21:13:36.138Z,10.57
2019-03-06T21:16:05.199Z,10.93
2019-03-06T21:18:34.251Z,15.30
2019-03-06T21:21:03.327Z,13.90
2019-03-06T21:23:32.393Z,19.47
2019-03-06T21:26:01.465Z,13.03
2019-03-06T21:28:30.536Z,13.60
2019-03-06T21:30:59.596Z,14.97
2019-03-06T21:33:28.634Z,14.83
2019-03-06T21:35:57.948Z,13.57
2019-03-06T21:38:27.016Z,17.77
2019-03-06T21:40:56.158Z,11.87
2019-03-06T21:43:25.169Z,9.77
2019-03-06T21:45:54.298Z,11.37
2019-03-06T21:48:23.355Z,9.37
2019-03-06T21:50:52.698Z,14.40
2019-03-06T21:53:21.770Z,10.70
2019-03-06T21:55:50.821Z,12.97
2019-03-06T21:58:19.905Z,12.67
2019-03-06T22:00:48.965Z,10.93
2019-03-06T22:03:18.031Z,8.93
2019-03-06T22:05:48.105Z,11.10
2019-03-06T22:08:17.197Z,9.67
2019-03-06T22:10:46.273Z,11.80
2019-03-06T22:13:15.356Z,11.40
2019-03-06T22:15:44.406Z,10.77
2019-03-06T22:18:13.515Z,11.00
2019-03-06T22:20:42.857Z,10.70
2019-03-06T22:23:11.904Z,12.13
2019-03-06T22:25:42.156Z,12.60
2019-03-06T22:28:11.272Z,8.27
2019-03-06T22:30:40.313Z,9.27
2019-03-06T22:33:09.371Z,9.63
2019-03-06T22:35:38.683Z,10.93
2019-03-06T22:38:07.773Z,10.83
2019-03-06T22:40:36.856Z,14.07
2019-03-06T22:43:05.980Z,13.57
2019-03-06T22:45:34.989Z,11.23
2019-03-06T22:48:05.271Z,10.83
2019-03-06T22:50:34.468Z,10.00
2019-03-06T22:53:03.567Z,12.63
2019-03-06T22:55:32.595Z,8.40
2019-03-06T22:58:02.739Z,10.10
2019-03-06T23:00:51.751Z,7.37
2019-03-06T23:03:21.301Z,9.20
2019-03-06T23:05:53.216Z,7.17
2019-03-06T23:08:23.695Z,10.00
2019-03-06T23:10:52.916Z,8.23
2019-03-06T23:13:22.105Z,6.73
2019-03-06T23:15:51.147Z,7.03
2019-03-06T23:18:20.235Z,6.60
2019-03-06T23:20:49.317Z,8.73
2019-03-06T23:23:18.348Z,9.83
2019-03-06T23:25:47.382Z,10.23
2019-03-06T23:28:16.570Z,9.20
2019-03-06T23:30:45.611Z,6.20
2019-03-06T23:33:14.681Z,5.67
2019-03-06T23:35:43.673Z,6.63
2019-03-06T23:38:15.041Z,8.10
2019-03-06T23:40:44.121Z,6.93
2019-03-06T23:43:14.170Z,7.27
2019-03-06T23:45:43.169Z,6.50
2019-03-06T23:48:12.264Z,5.80
2019-03-06T23:50:41.263Z,5.83
2019-03-06T23:53:12.028Z,6.33
2019-03-06T23:55:41.248Z,6.13
2019-03-06T23:58:10.349Z,8.90
